Amersham, United Kingdom
Current Conditions -  °F | °C
As of 6:50 AM on Wednesday 26 Nov 2014 (Local Time) from EGWU Reporting Station
Haze Haze  
Wind Chill: 46°   Ceiling: 400
Heat Index: 46°   Visibility: 2.8mi
Dew Point: 45°   Wind: 3mph
Humidity: 93%   Direction: 70°ENE
Pressure: 29.88"   Gusts: NA
Location:  51.67°N, 0.62°W
Report Text: EGWU 260650Z 07003KT 4500 BR BKN004 OVC014 08/07 Q1012 YLO2 TEMPO 5000 BKN005 YLO1
Loading
Personal Weather Stations






























Interactive Weather Map New forecast layout! Learn more

10-Day Weather Forecast

Advertisements
Track Severe Weather on mobile